Foxcroft Square, Pennsylvania
Current Conditions -  °F | °C
As of 6:54 AM on Thursday 18 Dec 2014 (Local Time) from KPNE Reporting Station
Broken Clouds Broken Clouds  
Wind Chill: 27°   Ceiling: 4100
Heat Index: 35°   Visibility: 10mi
Dew Point: 18°   Wind: 12mph
Humidity: 50%   Direction: 270°W
Pressure: 30.05"   Gusts: NA
Location:  40.1039°N, 75.1072°W
Report Text: KPNE 181154Z AUTO 27010KT 10SM BKN041 02/M08 A3005 RMK AO2 SLP177 T00171078 10033 20011 53017 TSNO $
Loading
Personal Weather Stations






























Interactive Weather Map New forecast layout! Learn more

10-Day Weather Forecast

Advertisements
Track Severe Weather on mobile